createdAt,value
2017-10-13T00:01:31.688Z,14.10
2017-10-13T00:03:59.248Z,14.10
2017-10-13T00:06:26.860Z,14.00
2017-10-13T00:08:55.266Z,13.90
2017-10-13T00:11:22.847Z,13.90
2017-10-13T00:13:50.436Z,13.80
2017-10-13T00:16:18.063Z,13.80
2017-10-13T00:18:45.647Z,13.70
2017-10-13T00:21:13.286Z,13.70
2017-10-13T00:23:40.874Z,13.60
2017-10-13T00:26:08.464Z,13.50
2017-10-13T00:28:36.860Z,13.60
2017-10-13T00:31:05.239Z,13.50
2017-10-13T00:33:33.629Z,13.50
2017-10-13T00:36:01.259Z,13.50
2017-10-13T00:38:28.831Z,13.50
2017-10-13T00:40:57.190Z,13.40
2017-10-13T00:43:24.802Z,13.40
2017-10-13T00:45:53.156Z,13.30
2017-10-13T00:48:20.795Z,13.30
2017-10-13T00:50:48.386Z,13.20
2017-10-13T00:53:16.029Z,13.30
2017-10-13T00:55:43.639Z,13.40
2017-10-13T00:58:11.240Z,13.20
2017-10-13T01:00:38.852Z,13.20
2017-10-13T01:03:06.443Z,13.10
2017-10-13T01:05:34.063Z,13.20
2017-10-13T01:08:01.689Z,13.30
2017-10-13T01:10:29.303Z,13.10
2017-10-13T01:12:56.911Z,13.10
2017-10-13T01:15:24.526Z,13.10
2017-10-13T01:17:52.110Z,13.10
2017-10-13T01:20:19.764Z,13.00
2017-10-13T01:22:47.383Z,12.90
2017-10-13T01:25:15.790Z,12.90
2017-10-13T01:27:43.412Z,12.90
2017-10-13T01:30:11.008Z,12.70
2017-10-13T01:32:38.607Z,12.70
2017-10-13T01:35:06.240Z,12.70
2017-10-13T01:37:33.876Z,12.80
2017-10-13T01:40:02.220Z,12.80
2017-10-13T01:42:29.837Z,12.80
2017-10-13T01:44:57.495Z,12.80
2017-10-13T01:47:25.139Z,12.80
2017-10-13T01:49:53.505Z,12.90
2017-10-13T01:52:21.125Z,12.90
2017-10-13T01:54:48.742Z,12.90
2017-10-13T01:57:17.136Z,12.60
2017-10-13T01:59:45.535Z,12.60
2017-10-13T02:02:13.139Z,12.50
2017-10-13T02:04:40.731Z,12.60
2017-10-13T02:07:09.135Z,12.60
2017-10-13T02:09:36.772Z,12.60
2017-10-13T02:12:05.136Z,12.70
2017-10-13T02:14:32.781Z,12.70
2017-10-13T02:17:00.422Z,12.80
2017-10-13T02:19:28.139Z,12.70
2017-10-13T02:21:56.481Z,12.80
2017-10-13T02:24:24.104Z,12.70
2017-10-13T02:26:51.731Z,12.60
2017-10-13T02:29:19.328Z,12.50
2017-10-13T02:31:47.689Z,12.40
2017-10-13T02:34:16.084Z,12.30
2017-10-13T02:36:43.684Z,12.30
2017-10-13T02:39:11.286Z,12.40
2017-10-13T02:41:39.675Z,12.40
2017-10-13T02:44:07.274Z,12.40
2017-10-13T02:46:34.866Z,12.40
2017-10-13T02:49:02.499Z,12.30
2017-10-13T02:51:30.080Z,12.30
2017-10-13T02:53:57.734Z,12.30
2017-10-13T02:56:25.391Z,12.30
2017-10-13T02:58:52.981Z,12.20
2017-10-13T03:01:23.667Z,12.30
2017-10-13T03:03:54.189Z,12.30
2017-10-13T03:06:21.801Z,12.30
2017-10-13T03:08:49.435Z,12.20
2017-10-13T03:11:17.056Z,12.20
2017-10-13T03:13:45.467Z,12.00
2017-10-13T03:16:13.042Z,12.00
2017-10-13T03:18:40.632Z,12.20
2017-10-13T03:21:09.035Z,12.20
2017-10-13T03:23:37.375Z,12.10
2017-10-13T03:26:04.987Z,12.10
2017-10-13T03:28:32.604Z,12.10
2017-10-13T03:31:00.235Z,12.20
2017-10-13T03:33:27.903Z,12.20
2017-10-13T03:35:55.507Z,12.20
2017-10-13T03:38:23.913Z,12.10
2017-10-13T03:40:51.518Z,12.10
2017-10-13T03:43:19.147Z,12.00
2017-10-13T03:45:46.766Z,12.00
2017-10-13T03:48:14.367Z,11.90
2017-10-13T03:50:41.991Z,12.00
2017-10-13T03:53:09.571Z,12.00
2017-10-13T03:55:37.965Z,12.00
2017-10-13T03:58:06.420Z,12.00
2017-10-13T04:00:34.078Z,12.00
2017-10-13T04:03:01.680Z,12.00
2017-10-13T04:05:29.288Z,12.00
2017-10-13T04:07:56.942Z,12.00
2017-10-13T04:10:24.567Z,11.90
2017-10-13T04:12:52.212Z,12.00
2017-10-13T04:15:20.558Z,12.00
2017-10-13T04:17:48.157Z,12.00
2017-10-13T04:20:16.561Z,11.90
2017-10-13T04:22:44.186Z,11.90
2017-10-13T04:25:12.580Z,12.10
2017-10-13T04:27:40.926Z,12.10
2017-10-13T04:30:08.584Z,12.10
2017-10-13T04:32:36.143Z,12.10
2017-10-13T04:35:03.803Z,12.20
2017-10-13T04:37:31.446Z,12.30
2017-10-13T04:39:59.029Z,12.30
2017-10-13T04:42:27.499Z,12.40
2017-10-13T04:44:55.079Z,12.40
2017-10-13T04:47:22.662Z,12.40
2017-10-13T04:49:51.060Z,12.30
2017-10-13T04:52:18.673Z,12.30
2017-10-13T04:54:46.311Z,12.20
2017-10-13T04:57:13.907Z,12.30
2017-10-13T04:59:41.533Z,12.40
2017-10-13T05:02:09.121Z,12.40
2017-10-13T05:04:36.717Z,12.40
2017-10-13T05:07:04.363Z,12.50
2017-10-13T05:09:32.019Z,12.50
2017-10-13T05:11:59.630Z,12.50
2017-10-13T05:14:27.227Z,12.60
2017-10-13T05:16:54.914Z,12.70
2017-10-13T05:19:22.583Z,12.80
2017-10-13T05:21:50.196Z,12.80
2017-10-13T05:24:17.852Z,12.80
2017-10-13T05:26:45.443Z,12.70
2017-10-13T05:29:13.086Z,12.80
2017-10-13T05:31:40.776Z,12.90
2017-10-13T05:34:08.411Z,12.90
2017-10-13T05:36:36.043Z,13.00
2017-10-13T05:39:03.676Z,13.00
2017-10-13T05:41:32.034Z,13.00
2017-10-13T05:43:59.678Z,13.00
2017-10-13T05:46:27.356Z,12.90
2017-10-13T05:48:54.985Z,12.90
2017-10-13T05:51:22.715Z,12.90
2017-10-13T05:53:50.354Z,13.00
2017-10-13T05:56:17.996Z,13.00
2017-10-13T05:58:45.575Z,13.00
2017-10-13T06:01:13.236Z,13.00
2017-10-13T06:03:40.819Z,13.00
2017-10-13T06:06:09.198Z,13.00
2017-10-13T06:08:37.622Z,13.10
2017-10-13T06:11:05.211Z,13.00
2017-10-13T06:13:32.856Z,13.10
2017-10-13T06:16:00.443Z,13.10
2017-10-13T06:18:28.836Z,13.20
2017-10-13T06:20:56.483Z,13.10
2017-10-13T06:23:24.080Z,13.20
2017-10-13T06:25:51.695Z,13.00
2017-10-13T06:28:19.473Z,13.00
2017-10-13T06:30:47.058Z,13.00
2017-10-13T06:33:15.485Z,13.10
2017-10-13T06:35:44.200Z,13.10
2017-10-13T06:38:11.815Z,13.10
2017-10-13T06:40:39.507Z,13.20
2017-10-13T06:43:07.168Z,13.30
2017-10-13T06:45:34.831Z,13.30
2017-10-13T06:48:02.708Z,13.30
2017-10-13T06:50:30.427Z,13.40
2017-10-13T06:52:58.150Z,13.30
2017-10-13T06:55:25.781Z,13.30
2017-10-13T06:57:53.381Z,13.40
2017-10-13T07:00:21.764Z,13.50
2017-10-13T07:02:49.416Z,13.50
2017-10-13T07:05:17.067Z,13.50
2017-10-13T07:07:44.755Z,13.60
2017-10-13T07:10:12.381Z,13.40
2017-10-13T07:12:40.021Z,13.50
2017-10-13T07:15:07.643Z,13.60
2017-10-13T07:17:35.269Z,13.70
2017-10-13T07:20:02.941Z,13.70
2017-10-13T07:22:30.529Z,14.00
2017-10-13T07:24:59.199Z,13.80
2017-10-13T07:27:27.011Z,13.70
2017-10-13T07:29:54.649Z,13.90
2017-10-13T07:32:22.279Z,14.00
2017-10-13T07:34:49.971Z,14.10
2017-10-13T07:37:18.119Z,14.10
2017-10-13T07:39:46.157Z,14.10
2017-10-13T07:42:14.156Z,14.20
2017-10-13T07:44:41.880Z,14.10
2017-10-13T07:47:09.568Z,14.20
2017-10-13T07:49:38.016Z,14.40
2017-10-13T07:52:05.716Z,14.40
2017-10-13T07:54:37.206Z,14.40
2017-10-13T07:57:05.655Z,14.60
2017-10-13T07:59:33.650Z,14.60
2017-10-13T08:02:01.428Z,14.70
2017-10-13T08:04:30.022Z,14.80
2017-10-13T08:06:58.502Z,15.00
2017-10-13T08:09:27.966Z,15.10
2017-10-13T08:11:56.028Z,15.00
2017-10-13T08:14:24.469Z,15.30
2017-10-13T08:16:52.479Z,15.50
2017-10-13T08:19:20.226Z,15.50
2017-10-13T08:21:48.334Z,15.80
2017-10-13T08:24:16.128Z,16.00
2017-10-13T08:26:44.522Z,15.90
2017-10-13T08:29:12.462Z,16.00
2017-10-13T08:31:40.274Z,16.20
2017-10-13T08:34:08.037Z,16.50
2017-10-13T08:36:35.964Z,16.60
2017-10-13T08:39:03.670Z,16.70
2017-10-13T08:41:31.289Z,17.00
2017-10-13T08:43:58.950Z,18.20
2017-10-13T08:46:27.348Z,19.10
2017-10-13T08:48:54.956Z,19.40
2017-10-13T08:51:22.642Z,20.00
2017-10-13T08:53:50.394Z,20.30
2017-10-13T08:56:18.009Z,20.90
2017-10-13T08:58:46.668Z,21.70
2017-10-13T09:01:14.733Z,21.70
2017-10-13T09:03:42.378Z,22.70
2017-10-13T09:06:10.147Z,22.70
2017-10-13T09:08:37.889Z,24.50
2017-10-13T09:11:05.531Z,26.10
2017-10-13T09:13:33.510Z,26.70
2017-10-13T09:16:01.380Z,25.20
2017-10-13T09:18:29.026Z,25.10
2017-10-13T09:20:56.705Z,26.10
2017-10-13T09:23:25.887Z,24.60
2017-10-13T09:25:54.224Z,22.90
2017-10-13T09:28:22.079Z,22.00
2017-10-13T09:30:49.734Z,21.40
2017-10-13T09:33:21.117Z,21.30
2017-10-13T09:35:49.162Z,20.80
2017-10-13T09:38:16.780Z,21.20
2017-10-13T09:40:45.195Z,20.60
2017-10-13T09:43:12.835Z,20.60
2017-10-13T09:45:40.476Z,20.50
2017-10-13T09:48:09.004Z,20.10
2017-10-13T09:50:36.665Z,20.10
2017-10-13T09:53:04.338Z,20.00
2017-10-13T09:55:32.064Z,19.90
2017-10-13T09:58:00.580Z,20.20
2017-10-13T10:00:28.225Z,20.20
2017-10-13T10:02:55.829Z,20.10
2017-10-13T10:05:23.492Z,20.00
2017-10-13T10:07:51.241Z,19.80
2017-10-13T10:10:18.875Z,19.60
2017-10-13T10:12:46.570Z,20.00
2017-10-13T10:15:14.188Z,20.10
2017-10-13T10:17:42.462Z,20.50
2017-10-13T10:20:11.351Z,20.10
2017-10-13T10:22:39.784Z,20.00
2017-10-13T10:25:07.483Z,20.00
2017-10-13T10:27:35.832Z,19.90
2017-10-13T10:30:04.256Z,19.90
2017-10-13T10:32:32.689Z,20.70
2017-10-13T10:35:00.446Z,20.00
2017-10-13T10:37:28.177Z,20.20
2017-10-13T10:39:55.759Z,20.80
2017-10-13T10:42:23.419Z,22.10
2017-10-13T10:44:51.095Z,22.50
2017-10-13T10:47:18.775Z,22.30
2017-10-13T10:49:46.431Z,22.20
2017-10-13T10:52:14.084Z,21.80
2017-10-13T10:54:41.667Z,22.00
2017-10-13T10:57:09.270Z,22.00
2017-10-13T10:59:37.698Z,22.40
2017-10-13T11:02:05.280Z,22.40
2017-10-13T11:04:33.012Z,22.80
2017-10-13T11:07:00.681Z,22.90
2017-10-13T11:09:28.430Z,22.90
2017-10-13T11:11:56.068Z,22.70
2017-10-13T11:14:23.727Z,22.90
2017-10-13T11:16:51.369Z,23.00
2017-10-13T11:19:19.524Z,23.30
2017-10-13T11:21:47.967Z,24.40
2017-10-13T11:24:15.603Z,24.40
2017-10-13T11:26:43.972Z,25.30
2017-10-13T11:29:12.387Z,25.90
2017-10-13T11:31:39.969Z,25.90
2017-10-13T11:34:07.613Z,26.50
2017-10-13T11:36:35.253Z,26.80
2017-10-13T11:39:03.615Z,27.10
2017-10-13T11:41:31.295Z,27.00
2017-10-13T11:43:59.693Z,27.60
2017-10-13T11:46:27.316Z,27.60
2017-10-13T11:48:55.832Z,27.60
2017-10-13T11:51:23.440Z,28.90
2017-10-13T11:53:51.158Z,28.60
2017-10-13T11:56:18.812Z,29.80
2017-10-13T11:58:47.200Z,29.20
2017-10-13T12:01:14.886Z,29.20
2017-10-13T12:03:42.606Z,29.80
2017-10-13T12:06:11.029Z,29.10
2017-10-13T12:08:38.783Z,29.10
2017-10-13T12:11:06.681Z,29.30
2017-10-13T12:13:40.260Z,30.30
2017-10-13T12:16:07.938Z,30.20
2017-10-13T12:18:35.594Z,31.90
2017-10-13T12:21:03.214Z,30.50
2017-10-13T12:23:31.587Z,30.30
2017-10-13T12:25:59.272Z,30.20
2017-10-13T12:28:26.938Z,29.90
2017-10-13T12:30:55.538Z,30.00
2017-10-13T12:33:23.205Z,27.80
2017-10-13T12:35:50.803Z,26.40
2017-10-13T12:38:18.513Z,25.70
2017-10-13T12:40:49.901Z,25.50
2017-10-13T12:43:17.564Z,25.50
2017-10-13T12:45:45.217Z,24.90
2017-10-13T12:48:12.838Z,24.50
2017-10-13T12:50:40.462Z,23.90
2017-10-13T12:53:08.081Z,23.80
2017-10-13T12:55:35.697Z,23.50
2017-10-13T12:58:03.375Z,23.50
2017-10-13T13:00:31.879Z,23.20
2017-10-13T13:02:59.448Z,23.20
2017-10-13T13:05:27.176Z,22.90
2017-10-13T13:07:54.858Z,23.10
2017-10-13T13:10:22.554Z,22.70
2017-10-13T13:12:50.331Z,22.80
2017-10-13T13:15:18.009Z,22.70
2017-10-13T13:17:45.766Z,22.80
2017-10-13T13:20:13.550Z,22.90
2017-10-13T13:22:41.353Z,22.60
2017-10-13T13:25:09.154Z,22.60
2017-10-13T13:27:36.920Z,22.50
2017-10-13T13:30:05.642Z,22.60
2017-10-13T13:32:33.688Z,22.60
2017-10-13T13:35:01.441Z,22.50
2017-10-13T13:37:29.067Z,22.20
2017-10-13T13:39:56.852Z,22.10
2017-10-13T13:42:24.537Z,22.00
2017-10-13T13:44:52.172Z,22.00
2017-10-13T13:47:19.816Z,21.90
2017-10-13T13:49:47.545Z,21.90
2017-10-13T13:52:15.247Z,21.80
2017-10-13T13:54:43.828Z,21.60
2017-10-13T13:57:12.314Z,21.50
2017-10-13T13:59:39.958Z,21.50
2017-10-13T14:02:07.583Z,21.90
2017-10-13T14:04:35.438Z,22.20
2017-10-13T14:07:03.117Z,22.40
2017-10-13T14:09:30.954Z,22.80
2017-10-13T14:11:58.573Z,22.80
2017-10-13T14:14:27.098Z,22.90
2017-10-13T14:16:54.931Z,22.90
2017-10-13T14:19:22.698Z,22.90
2017-10-13T14:21:51.168Z,24.10
2017-10-13T14:24:18.875Z,24.10
2017-10-13T14:26:46.625Z,23.90
2017-10-13T14:29:15.169Z,23.20
2017-10-13T14:31:42.990Z,23.10
2017-10-13T14:34:10.727Z,22.90
2017-10-13T14:36:38.515Z,22.80
2017-10-13T14:39:07.007Z,22.50
2017-10-13T14:41:35.502Z,22.50
2017-10-13T14:44:03.239Z,22.50
2017-10-13T14:46:31.122Z,22.50
2017-10-13T14:48:58.849Z,22.20
2017-10-13T14:51:26.438Z,22.20
2017-10-13T14:53:54.214Z,22.00
2017-10-13T14:56:22.675Z,21.90
2017-10-13T14:58:50.359Z,22.00
2017-10-13T15:01:17.973Z,21.80
2017-10-13T15:03:45.603Z,21.70
2017-10-13T15:06:13.310Z,21.70
2017-10-13T15:08:40.943Z,21.60
2017-10-13T15:11:08.584Z,21.50
2017-10-13T15:13:36.268Z,21.50
2017-10-13T15:16:04.176Z,21.30
2017-10-13T15:18:32.589Z,21.20
2017-10-13T15:21:01.885Z,21.20
2017-10-13T15:23:29.471Z,21.50
2017-10-13T15:25:57.157Z,21.60
2017-10-13T15:28:30.570Z,21.50
2017-10-13T15:31:01.803Z,21.10
2017-10-13T15:33:35.891Z,21.00
2017-10-13T15:36:09.365Z,21.00
2017-10-13T15:38:42.584Z,21.00
2017-10-13T15:41:16.031Z,21.00
2017-10-13T15:43:49.496Z,20.90
2017-10-13T15:46:22.705Z,20.70
2017-10-13T15:48:55.871Z,20.60
2017-10-13T15:51:29.033Z,20.40
2017-10-13T15:53:56.700Z,20.40
2017-10-13T15:56:24.316Z,20.30
2017-10-13T15:58:51.973Z,20.10
2017-10-13T16:01:19.643Z,20.20
2017-10-13T16:03:48.071Z,20.10
2017-10-13T16:06:15.758Z,20.00
2017-10-13T16:08:45.180Z,20.00
2017-10-13T16:11:14.969Z,19.80
2017-10-13T16:13:45.571Z,19.80
2017-10-13T16:16:15.137Z,19.80
2017-10-13T16:18:45.627Z,19.80
2017-10-13T16:21:14.920Z,19.90
2017-10-13T16:23:45.474Z,19.80
2017-10-13T16:26:16.322Z,19.80
2017-10-13T16:28:46.155Z,19.70
2017-10-13T16:31:16.375Z,19.60
2017-10-13T16:33:47.149Z,19.50
2017-10-13T16:36:16.918Z,19.50
2017-10-13T16:38:46.648Z,19.30
2017-10-13T16:41:16.568Z,19.40
2017-10-13T16:43:46.914Z,19.20
2017-10-13T16:46:17.354Z,19.20
2017-10-13T16:48:46.731Z,19.00
2017-10-13T16:51:17.320Z,18.70
2017-10-13T16:53:48.028Z,18.70
2017-10-13T16:56:17.880Z,18.50
2017-10-13T16:58:47.731Z,18.40
2017-10-13T17:01:15.978Z,18.30
2017-10-13T17:03:44.670Z,18.00
2017-10-13T17:06:12.678Z,18.00
2017-10-13T17:08:40.548Z,18.00
2017-10-13T17:11:08.195Z,17.90
2017-10-13T17:13:35.798Z,17.80
2017-10-13T17:16:03.397Z,17.60
2017-10-13T17:18:31.079Z,17.50
2017-10-13T17:20:59.436Z,17.30
2017-10-13T17:23:27.078Z,17.30
2017-10-13T17:25:54.658Z,17.40
2017-10-13T17:28:23.073Z,17.20
2017-10-13T17:30:50.768Z,17.20
2017-10-13T17:33:18.340Z,17.00
2017-10-13T17:35:45.962Z,15.70
2017-10-13T17:38:13.559Z,17.30
2017-10-13T17:40:41.204Z,17.30
2017-10-13T17:43:08.802Z,17.20
2017-10-13T17:45:36.426Z,16.90
2017-10-13T17:48:04.018Z,16.70
2017-10-13T17:50:31.624Z,16.70
2017-10-13T17:53:00.012Z,16.60
2017-10-13T17:55:27.606Z,16.60
2017-10-13T17:57:55.226Z,16.80
2017-10-13T18:00:22.854Z,16.80
2017-10-13T18:02:50.450Z,16.80
2017-10-13T18:05:18.032Z,16.70
2017-10-13T18:07:45.745Z,16.70
2017-10-13T18:10:13.401Z,16.60
2017-10-13T18:12:41.015Z,16.30
2017-10-13T18:15:08.605Z,16.20
2017-10-13T18:17:36.227Z,16.10
2017-10-13T18:20:03.825Z,16.00
2017-10-13T18:22:31.466Z,16.00
2017-10-13T18:24:59.062Z,15.90
2017-10-13T18:27:26.642Z,15.80
2017-10-13T18:29:54.371Z,15.90
2017-10-13T18:32:21.979Z,16.00
2017-10-13T18:34:50.326Z,15.80
2017-10-13T18:37:17.954Z,15.70
2017-10-13T18:39:45.547Z,15.70
2017-10-13T18:42:13.125Z,15.60
2017-10-13T18:44:41.526Z,15.90
2017-10-13T18:47:09.914Z,16.00
2017-10-13T18:49:37.498Z,16.00
2017-10-13T18:52:05.095Z,16.00
2017-10-13T18:54:32.738Z,16.00
2017-10-13T18:57:00.335Z,15.90
2017-10-13T18:59:28.746Z,15.40
2017-10-13T19:01:56.319Z,15.40
2017-10-13T19:04:23.898Z,15.40
2017-10-13T19:06:51.527Z,15.30
2017-10-13T19:09:19.132Z,15.30
2017-10-13T19:11:46.708Z,15.30
2017-10-13T19:14:14.358Z,15.50
2017-10-13T19:16:41.994Z,15.50
2017-10-13T19:19:09.644Z,15.40
2017-10-13T19:21:37.226Z,15.20
2017-10-13T19:24:04.801Z,15.10
2017-10-13T19:26:32.448Z,15.00
2017-10-13T19:29:00.065Z,14.90
2017-10-13T19:31:28.407Z,14.90
2017-10-13T19:33:56.041Z,14.80
2017-10-13T19:36:23.614Z,14.80
2017-10-13T19:38:51.243Z,15.00
2017-10-13T19:41:18.818Z,15.20
2017-10-13T19:43:46.396Z,15.30
2017-10-13T19:46:14.031Z,15.30
2017-10-13T19:48:41.626Z,15.30
2017-10-13T19:51:09.254Z,15.20
2017-10-13T19:53:36.834Z,15.10
2017-10-13T19:56:04.420Z,14.70
2017-10-13T19:58:32.047Z,14.50
2017-10-13T20:00:59.622Z,14.70
2017-10-13T20:03:29.718Z,14.50
2017-10-13T20:05:57.417Z,14.50
2017-10-13T20:08:25.000Z,14.40
2017-10-13T20:10:52.591Z,14.40
2017-10-13T20:13:21.027Z,14.70
2017-10-13T20:15:48.619Z,14.60
2017-10-13T20:18:16.200Z,14.80
2017-10-13T20:20:44.584Z,14.80
2017-10-13T20:23:12.175Z,14.80
2017-10-13T20:25:40.642Z,14.80
2017-10-13T20:28:08.337Z,14.70
2017-10-13T20:30:35.953Z,14.70
2017-10-13T20:33:03.586Z,14.80
2017-10-13T20:35:31.215Z,14.70
2017-10-13T20:37:58.801Z,14.70
2017-10-13T20:40:26.443Z,14.70
2017-10-13T20:42:54.064Z,14.60
2017-10-13T20:45:21.659Z,14.50
2017-10-13T20:47:49.247Z,14.60
2017-10-13T20:50:16.864Z,14.50
2017-10-13T20:52:44.507Z,14.20
2017-10-13T20:55:12.118Z,14.10
2017-10-13T20:57:39.746Z,13.90
2017-10-13T21:00:07.332Z,14.00
2017-10-13T21:02:35.012Z,14.10
2017-10-13T21:05:03.407Z,14.00
2017-10-13T21:07:30.970Z,14.00
2017-10-13T21:09:58.605Z,13.90
2017-10-13T21:12:26.227Z,13.90
2017-10-13T21:14:54.634Z,14.00
2017-10-13T21:17:22.280Z,14.00
2017-10-13T21:19:49.883Z,14.10
2017-10-13T21:22:17.527Z,14.20
2017-10-13T21:24:45.126Z,14.10
2017-10-13T21:27:12.749Z,14.10
2017-10-13T21:29:40.316Z,14.00
2017-10-13T21:32:07.914Z,14.00
2017-10-13T21:34:36.298Z,13.70
2017-10-13T21:37:04.724Z,13.70
2017-10-13T21:39:32.302Z,13.70
2017-10-13T21:41:59.917Z,13.90
2017-10-13T21:44:28.256Z,13.80
2017-10-13T21:46:55.899Z,13.80
2017-10-13T21:49:23.523Z,13.70
2017-10-13T21:51:51.179Z,13.60
2017-10-13T21:54:19.539Z,13.80
2017-10-13T21:56:47.142Z,13.80
2017-10-13T21:59:14.777Z,13.70
2017-10-13T22:01:43.128Z,13.50
2017-10-13T22:04:10.700Z,13.50
2017-10-13T22:06:38.359Z,13.40
2017-10-13T22:09:05.934Z,13.50
2017-10-13T22:11:34.348Z,13.70
2017-10-13T22:14:01.918Z,13.60
2017-10-13T22:16:30.314Z,13.70
2017-10-13T22:18:57.894Z,13.70
2017-10-13T22:21:25.473Z,13.30
2017-10-13T22:23:53.098Z,13.30
2017-10-13T22:26:20.678Z,13.40
2017-10-13T22:28:48.254Z,13.50
2017-10-13T22:31:15.878Z,13.50
2017-10-13T22:33:43.472Z,13.30
2017-10-13T22:36:11.089Z,13.20
2017-10-13T22:38:38.693Z,13.00
2017-10-13T22:41:06.323Z,13.20
2017-10-13T22:43:33.894Z,13.10
2017-10-13T22:46:01.520Z,13.10
2017-10-13T22:48:29.107Z,13.20
2017-10-13T22:50:57.439Z,13.30
2017-10-13T22:53:25.813Z,13.30
2017-10-13T22:55:53.381Z,13.30
2017-10-13T22:58:21.779Z,13.20
2017-10-13T23:00:49.347Z,13.10
2017-10-13T23:03:16.923Z,12.80
2017-10-13T23:05:44.542Z,12.70
2017-10-13T23:08:12.881Z,12.90
2017-10-13T23:10:40.461Z,12.90
2017-10-13T23:13:08.097Z,12.90
2017-10-13T23:15:35.670Z,12.90
2017-10-13T23:18:03.276Z,13.00
2017-10-13T23:20:30.920Z,13.10
2017-10-13T23:22:58.500Z,13.10
2017-10-13T23:25:26.083Z,13.10
2017-10-13T23:27:53.699Z,13.10
2017-10-13T23:30:21.337Z,13.00
2017-10-13T23:32:48.906Z,13.00
2017-10-13T23:35:16.471Z,13.00
2017-10-13T23:37:44.080Z,12.90
2017-10-13T23:40:11.642Z,12.90
2017-10-13T23:42:39.258Z,12.90
2017-10-13T23:45:06.828Z,12.70
2017-10-13T23:47:35.177Z,12.50
2017-10-13T23:50:02.790Z,12.50
2017-10-13T23:52:31.184Z,12.30
2017-10-13T23:54:58.769Z,12.20
2017-10-13T23:57:26.354Z,12.40
2017-10-13T23:59:53.962Z,12.50
